Manakin, Virginia
Current Conditions -  °F | °C
As of 10:54 AM on Monday 26 Jan 2015 (Local Time) from KOFP Reporting Station
Haze Haze  
Wind Chill: 38°   Ceiling: 700
Heat Index: 41°   Visibility: 6mi
Dew Point: 39°   Wind: 5mph
Humidity: 93%   Direction: 20°NNE
Pressure: 29.73"   Gusts: NA
Location:  37.6517°N, 77.7212°W
Report Text: KOFP 261554Z AUTO 02004KT 6SM BR OVC007 05/04 A2973 RMK AO2 RAE52 CIG 004V010 SLP068 P0001 T00500039
Loading
Personal Weather Stations






























Interactive Weather Map New forecast layout! Learn more

10-Day Weather Forecast

Advertisements
Track Severe Weather on mobile